sensor_id;sensor_type;location;lat;lon;timestamp;temperature;humidity
30385;DHT22;17181;51.002;4.096;2024-02-04T10:19:02;11.40;99.90
30385;DHT22;17181;51.002;4.096;2024-02-04T10:38:54;13.00;99.90
30385;DHT22;17181;51.002;4.096;2024-02-04T10:41:20;13.00;99.90
30385;DHT22;17181;51.002;4.096;2024-02-04T10:43:47;13.00;99.90
30385;DHT22;17181;51.002;4.096;2024-02-04T10:46:18;12.90;99.90
30385;DHT22;17181;51.002;4.096;2024-02-04T10:48:48;12.90;99.90
30385;DHT22;17181;51.002;4.096;2024-02-04T10:51:17;12.90;99.90
30385;DHT22;17181;51.002;4.096;2024-02-04T10:53:45;12.90;99.90
30385;DHT22;17181;51.002;4.096;2024-02-04T10:56:22;12.90;99.90
30385;DHT22;17181;51.002;4.096;2024-02-04T10:58:49;12.90;99.90
30385;DHT22;17181;51.002;4.096;2024-02-04T11:01:15;12.90;99.90
30385;DHT22;17181;51.002;4.096;2024-02-04T11:03:41;12.90;99.90
30385;DHT22;17181;51.002;4.096;2024-02-04T11:06:09;13.00;99.90
30385;DHT22;17181;51.002;4.096;2024-02-04T11:08:35;13.00;99.90
30385;DHT22;17181;51.002;4.096;2024-02-04T11:11:04;13.00;99.90
30385;DHT22;17181;51.002;4.096;2024-02-04T11:13:31;13.00;99.90
30385;DHT22;17181;51.002;4.096;2024-02-04T11:16:21;13.10;99.90
30385;DHT22;17181;51.002;4.096;2024-02-04T11:18:58;13.00;99.90
30385;DHT22;17181;51.002;4.096;2024-02-04T11:27:06;13.00;99.90
30385;DHT22;17181;51.002;4.096;2024-02-04T11:29:32;13.00;99.90
30385;DHT22;17181;51.002;4.096;2024-02-04T11:31:59;13.10;99.90
30385;DHT22;17181;51.002;4.096;2024-02-04T11:34:25;13.10;99.90
30385;DHT22;17181;51.002;4.096;2024-02-04T11:36:51;13.10;99.90
30385;DHT22;17181;51.002;4.096;2024-02-04T11:39:21;13.10;99.90
30385;DHT22;17181;51.002;4.096;2024-02-04T11:41:48;13.00;99.90
30385;DHT22;17181;51.002;4.096;2024-02-04T11:44:22;13.00;99.90
30385;DHT22;17181;51.002;4.096;2024-02-04T11:46:48;13.10;99.90
30385;DHT22;17181;51.002;4.096;2024-02-04T11:49:15;13.00;99.90
30385;DHT22;17181;51.002;4.096;2024-02-04T11:51:45;13.00;99.90
30385;DHT22;17181;51.002;4.096;2024-02-04T11:54:11;13.00;99.90
30385;DHT22;17181;51.002;4.096;2024-02-04T11:56:39;13.00;99.90
30385;DHT22;17181;51.002;4.096;2024-02-04T11:59:06;13.00;99.90
30385;DHT22;17181;51.002;4.096;2024-02-04T12:01:33;13.00;99.90
30385;DHT22;17181;51.002;4.096;2024-02-04T12:04:15;13.00;99.90
30385;DHT22;17181;51.002;4.096;2024-02-04T12:06:41;13.00;99.90
30385;DHT22;17181;51.002;4.096;2024-02-04T12:09:08;13.00;99.90
30385;DHT22;17181;51.002;4.096;2024-02-04T12:11:36;12.90;99.90
30385;DHT22;17181;51.002;4.096;2024-02-04T12:14:03;13.00;99.90
30385;DHT22;17181;51.002;4.096;2024-02-04T12:16:31;13.00;99.90
30385;DHT22;17181;51.002;4.096;2024-02-04T12:19:02;13.00;99.90
30385;DHT22;17181;51.002;4.096;2024-02-04T12:21:32;13.00;99.90
30385;DHT22;17181;51.002;4.096;2024-02-04T12:24:01;13.00;99.90
30385;DHT22;17181;51.002;4.096;2024-02-04T12:26:27;13.10;99.90
30385;DHT22;17181;51.002;4.096;2024-02-04T12:28:53;13.10;99.90
30385;DHT22;17181;51.002;4.096;2024-02-04T12:31:24;13.20;99.90
30385;DHT22;17181;51.002;4.096;2024-02-04T12:33:57;13.20;99.90
30385;DHT22;17181;51.002;4.096;2024-02-04T12:36:28;13.20;99.90
30385;DHT22;17181;51.002;4.096;2024-02-04T12:38:55;13.30;99.90
30385;DHT22;17181;51.002;4.096;2024-02-04T12:41:25;13.30;99.90
30385;DHT22;17181;51.002;4.096;2024-02-04T12:43:52;13.30;99.90
30385;DHT22;17181;51.002;4.096;2024-02-04T12:46:19;13.30;99.90
30385;DHT22;17181;51.002;4.096;2024-02-04T12:48:45;13.30;99.90
30385;DHT22;17181;51.002;4.096;2024-02-04T12:51:24;13.30;99.90
30385;DHT22;17181;51.002;4.096;2024-02-04T12:53:50;13.30;99.90
30385;DHT22;17181;51.002;4.096;2024-02-04T12:56:16;13.30;99.90
30385;DHT22;17181;51.002;4.096;2024-02-04T12:58:42;13.30;99.90
30385;DHT22;17181;51.002;4.096;2024-02-04T13:01:09;13.30;99.90
30385;DHT22;17181;51.002;4.096;2024-02-04T13:03:35;13.30;99.90
30385;DHT22;17181;51.002;4.096;2024-02-04T13:06:01;13.30;99.90
30385;DHT22;17181;51.002;4.096;2024-02-04T13:08:27;13.30;99.90
30385;DHT22;17181;51.002;4.096;2024-02-04T13:10:54;13.30;99.90
30385;DHT22;17181;51.002;4.096;2024-02-04T13:13:23;13.30;99.90
30385;DHT22;17181;51.002;4.096;2024-02-04T13:15:55;13.30;99.90
30385;DHT22;17181;51.002;4.096;2024-02-04T13:18:21;13.30;99.90
30385;DHT22;17181;51.002;4.096;2024-02-04T13:20:47;13.20;99.90
30385;DHT22;17181;51.002;4.096;2024-02-04T13:23:14;13.20;99.90
30385;DHT22;17181;51.002;4.096;2024-02-04T13:25:40;13.20;99.90
30385;DHT22;17181;51.002;4.096;2024-02-04T13:28:06;13.20;99.90
30385;DHT22;17181;51.002;4.096;2024-02-04T13:30:31;13.20;99.90
30385;DHT22;17181;51.002;4.096;2024-02-04T13:32:58;13.20;99.90
30385;DHT22;17181;51.002;4.096;2024-02-04T13:35:24;13.20;99.90
30385;DHT22;17181;51.002;4.096;2024-02-04T13:37:50;13.20;99.90
30385;DHT22;17181;51.002;4.096;2024-02-04T13:40:20;13.20;99.90
30385;DHT22;17181;51.002;4.096;2024-02-04T13:42:47;13.20;99.90
30385;DHT22;17181;51.002;4.096;2024-02-04T13:45:13;13.10;99.90
30385;DHT22;17181;51.002;4.096;2024-02-04T13:47:39;13.20;99.90
30385;DHT22;17181;51.002;4.096;2024-02-04T13:50:06;13.20;99.90
30385;DHT22;17181;51.002;4.096;2024-02-04T13:52:34;13.20;99.90
30385;DHT22;17181;51.002;4.096;2024-02-04T13:55:00;13.20;99.90
30385;DHT22;17181;51.002;4.096;2024-02-04T13:57:26;13.20;99.90
30385;DHT22;17181;51.002;4.096;2024-02-04T13:59:52;13.30;99.90
30385;DHT22;17181;51.002;4.096;2024-02-04T14:02:18;13.30;99.90
30385;DHT22;17181;51.002;4.096;2024-02-04T14:04:43;13.30;99.90
30385;DHT22;17181;51.002;4.096;2024-02-04T14:07:09;13.30;99.90
30385;DHT22;17181;51.002;4.096;2024-02-04T14:09:35;13.30;99.90
30385;DHT22;17181;51.002;4.096;2024-02-04T14:12:04;13.30;99.90
30385;DHT22;17181;51.002;4.096;2024-02-04T14:14:30;13.30;99.90
30385;DHT22;17181;51.002;4.096;2024-02-04T14:16:57;13.30;99.90
30385;DHT22;17181;51.002;4.096;2024-02-04T14:19:23;13.30;99.90
30385;DHT22;17181;51.002;4.096;2024-02-04T14:21:48;13.30;99.90
30385;DHT22;17181;51.002;4.096;2024-02-04T14:24:14;13.30;99.90
30385;DHT22;17181;51.002;4.096;2024-02-04T14:26:40;13.40;99.90
30385;DHT22;17181;51.002;4.096;2024-02-04T14:29:08;13.30;99.90
30385;DHT22;17181;51.002;4.096;2024-02-04T14:31:34;13.30;99.90
30385;DHT22;17181;51.002;4.096;2024-02-04T14:33:59;13.30;99.90
30385;DHT22;17181;51.002;4.096;2024-02-04T14:36:25;13.30;99.90
30385;DHT22;17181;51.002;4.096;2024-02-04T14:38:52;13.40;99.90
30385;DHT22;17181;51.002;4.096;2024-02-04T14:41:18;13.40;99.90
30385;DHT22;17181;51.002;4.096;2024-02-04T14:43:44;13.40;99.90
30385;DHT22;17181;51.002;4.096;2024-02-04T14:46:10;13.40;99.90
30385;DHT22;17181;51.002;4.096;2024-02-04T14:48:36;13.40;99.90
30385;DHT22;17181;51.002;4.096;2024-02-04T14:51:03;13.40;99.90
30385;DHT22;17181;51.002;4.096;2024-02-04T14:53:29;13.40;99.90
30385;DHT22;17181;51.002;4.096;2024-02-04T14:55:56;13.40;99.90
30385;DHT22;17181;51.002;4.096;2024-02-04T14:58:22;13.40;99.90
30385;DHT22;17181;51.002;4.096;2024-02-04T15:00:48;13.40;99.90
30385;DHT22;17181;51.002;4.096;2024-02-04T15:03:14;13.40;99.90
30385;DHT22;17181;51.002;4.096;2024-02-04T15:05:41;13.40;99.90
30385;DHT22;17181;51.002;4.096;2024-02-04T15:08:07;13.40;99.90
30385;DHT22;17181;51.002;4.096;2024-02-04T15:10:33;13.30;99.90
30385;DHT22;17181;51.002;4.096;2024-02-04T15:13:00;13.30;99.90
30385;DHT22;17181;51.002;4.096;2024-02-04T15:15:26;13.20;99.90
30385;DHT22;17181;51.002;4.096;2024-02-04T15:17:52;13.30;99.90
30385;DHT22;17181;51.002;4.096;2024-02-04T15:20:19;13.20;99.90
30385;DHT22;17181;51.002;4.096;2024-02-04T15:22:46;13.20;99.90
30385;DHT22;17181;51.002;4.096;2024-02-04T15:25:13;13.20;99.90
30385;DHT22;17181;51.002;4.096;2024-02-04T15:27:43;13.20;99.90
30385;DHT22;17181;51.002;4.096;2024-02-04T15:30:12;13.20;99.90
30385;DHT22;17181;51.002;4.096;2024-02-04T15:32:38;13.20;99.90
30385;DHT22;17181;51.002;4.096;2024-02-04T15:35:04;13.20;99.90
30385;DHT22;17181;51.002;4.096;2024-02-04T15:37:31;13.20;99.90
30385;DHT22;17181;51.002;4.096;2024-02-04T15:39:56;13.10;99.90
30385;DHT22;17181;51.002;4.096;2024-02-04T15:42:22;13.10;99.90
30385;DHT22;17181;51.002;4.096;2024-02-04T15:44:48;13.10;99.90
30385;DHT22;17181;51.002;4.096;2024-02-04T15:47:15;13.10;99.90
30385;DHT22;17181;51.002;4.096;2024-02-04T15:49:42;13.10;99.90
30385;DHT22;17181;51.002;4.096;2024-02-04T15:52:08;13.10;99.90
30385;DHT22;17181;51.002;4.096;2024-02-04T15:54:34;13.10;99.90
30385;DHT22;17181;51.002;4.096;2024-02-04T15:57:08;13.10;99.90
30385;DHT22;17181;51.002;4.096;2024-02-04T15:59:51;13.20;99.90
30385;DHT22;17181;51.002;4.096;2024-02-04T16:02:20;13.10;99.90
30385;DHT22;17181;51.002;4.096;2024-02-04T16:04:46;13.10;99.90
30385;DHT22;17181;51.002;4.096;2024-02-04T16:07:13;13.10;99.90
30385;DHT22;17181;51.002;4.096;2024-02-04T16:09:41;13.10;99.90
30385;DHT22;17181;51.002;4.096;2024-02-04T16:12:18;13.10;99.90
30385;DHT22;17181;51.002;4.096;2024-02-04T16:14:49;13.10;99.90
30385;DHT22;17181;51.002;4.096;2024-02-04T16:17:17;13.10;99.90
30385;DHT22;17181;51.002;4.096;2024-02-04T16:19:47;13.10;99.90
30385;DHT22;17181;51.002;4.096;2024-02-04T16:22:15;13.00;99.90
30385;DHT22;17181;51.002;4.096;2024-02-04T16:24:45;13.00;99.90
30385;DHT22;17181;51.002;4.096;2024-02-04T16:27:11;13.00;99.90
30385;DHT22;17181;51.002;4.096;2024-02-04T16:29:37;13.10;99.90
30385;DHT22;17181;51.002;4.096;2024-02-04T16:32:03;13.00;99.90
30385;DHT22;17181;51.002;4.096;2024-02-04T16:34:29;13.10;99.90
30385;DHT22;17181;51.002;4.096;2024-02-04T16:36:59;13.00;99.90
30385;DHT22;17181;51.002;4.096;2024-02-04T16:39:25;13.00;99.90
30385;DHT22;17181;51.002;4.096;2024-02-04T16:41:51;13.00;99.90
30385;DHT22;17181;51.002;4.096;2024-02-04T16:44:18;13.00;99.90
30385;DHT22;17181;51.002;4.096;2024-02-04T16:46:44;13.10;99.90
30385;DHT22;17181;51.002;4.096;2024-02-04T16:49:10;13.00;99.90
30385;DHT22;17181;51.002;4.096;2024-02-04T16:51:38;13.10;99.90
30385;DHT22;17181;51.002;4.096;2024-02-04T16:54:04;13.10;99.90
30385;DHT22;17181;51.002;4.096;2024-02-04T16:56:30;13.10;99.90
30385;DHT22;17181;51.002;4.096;2024-02-04T16:58:56;13.10;99.90
30385;DHT22;17181;51.002;4.096;2024-02-04T17:01:22;13.00;99.90
30385;DHT22;17181;51.002;4.096;2024-02-04T17:03:50;13.10;99.90
30385;DHT22;17181;51.002;4.096;2024-02-04T17:06:16;13.10;99.90
30385;DHT22;17181;51.002;4.096;2024-02-04T17:08:42;13.10;99.90
30385;DHT22;17181;51.002;4.096;2024-02-04T17:11:08;13.10;99.90
30385;DHT22;17181;51.002;4.096;2024-02-04T17:13:34;13.10;99.90
30385;DHT22;17181;51.002;4.096;2024-02-04T17:16:32;13.10;99.90
30385;DHT22;17181;51.002;4.096;2024-02-04T17:19:15;13.10;99.90
30385;DHT22;17181;51.002;4.096;2024-02-04T17:21:47;13.00;99.90
30385;DHT22;17181;51.002;4.096;2024-02-04T17:24:19;13.00;99.90
30385;DHT22;17181;51.002;4.096;2024-02-04T17:26:53;13.00;99.90
30385;DHT22;17181;51.002;4.096;2024-02-04T17:29:19;13.00;99.90
30385;DHT22;17181;51.002;4.096;2024-02-04T17:31:45;13.00;99.90
30385;DHT22;17181;51.002;4.096;2024-02-04T17:34:12;13.00;99.90
30385;DHT22;17181;51.002;4.096;2024-02-04T17:36:38;13.10;99.90
30385;DHT22;17181;51.002;4.096;2024-02-04T17:39:05;13.10;99.90
30385;DHT22;17181;51.002;4.096;2024-02-04T17:41:32;13.10;99.90
30385;DHT22;17181;51.002;4.096;2024-02-04T17:43:58;13.10;99.90
30385;DHT22;17181;51.002;4.096;2024-02-04T17:46:24;13.10;99.90
30385;DHT22;17181;51.002;4.096;2024-02-04T17:48:50;13.10;99.90
30385;DHT22;17181;51.002;4.096;2024-02-04T17:51:16;13.10;99.90
30385;DHT22;17181;51.002;4.096;2024-02-04T17:53:42;13.10;99.90
30385;DHT22;17181;51.002;4.096;2024-02-04T17:56:14;13.10;99.90
30385;DHT22;17181;51.002;4.096;2024-02-04T17:58:39;13.10;99.90
30385;DHT22;17181;51.002;4.096;2024-02-04T18:01:05;13.10;99.90
30385;DHT22;17181;51.002;4.096;2024-02-04T18:03:31;13.10;99.90
30385;DHT22;17181;51.002;4.096;2024-02-04T18:05:58;13.10;99.90
30385;DHT22;17181;51.002;4.096;2024-02-04T18:08:25;13.00;99.90
30385;DHT22;17181;51.002;4.096;2024-02-04T18:10:54;13.00;99.90
30385;DHT22;17181;51.002;4.096;2024-02-04T18:13:19;13.00;99.90
30385;DHT22;17181;51.002;4.096;2024-02-04T18:15:45;13.00;99.90
30385;DHT22;17181;51.002;4.096;2024-02-04T18:18:11;13.00;99.90
30385;DHT22;17181;51.002;4.096;2024-02-04T18:20:37;13.00;99.90
30385;DHT22;17181;51.002;4.096;2024-02-04T18:23:03;13.10;99.90
30385;DHT22;17181;51.002;4.096;2024-02-04T18:25:29;13.10;99.90
30385;DHT22;17181;51.002;4.096;2024-02-04T18:27:55;13.10;99.90
30385;DHT22;17181;51.002;4.096;2024-02-04T18:30:20;13.10;99.90
30385;DHT22;17181;51.002;4.096;2024-02-04T18:32:48;13.10;99.90
30385;DHT22;17181;51.002;4.096;2024-02-04T18:35:14;13.10;99.90
30385;DHT22;17181;51.002;4.096;2024-02-04T18:37:40;13.10;99.90
30385;DHT22;17181;51.002;4.096;2024-02-04T18:40:06;13.10;99.90
30385;DHT22;17181;51.002;4.096;2024-02-04T18:42:32;13.10;99.90
30385;DHT22;17181;51.002;4.096;2024-02-04T18:44:59;13.20;99.90
30385;DHT22;17181;51.002;4.096;2024-02-04T18:47:25;13.10;99.90
30385;DHT22;17181;51.002;4.096;2024-02-04T18:49:51;13.10;99.90
30385;DHT22;17181;51.002;4.096;2024-02-04T18:52:20;13.10;99.90
30385;DHT22;17181;51.002;4.096;2024-02-04T18:54:46;13.10;99.90
30385;DHT22;17181;51.002;4.096;2024-02-04T18:57:12;13.10;99.90
30385;DHT22;17181;51.002;4.096;2024-02-04T18:59:38;13.10;99.90
30385;DHT22;17181;51.002;4.096;2024-02-04T19:02:04;13.00;99.90
30385;DHT22;17181;51.002;4.096;2024-02-04T19:04:31;12.90;99.90
30385;DHT22;17181;51.002;4.096;2024-02-04T19:06:57;12.80;99.90
30385;DHT22;17181;51.002;4.096;2024-02-04T19:09:25;12.70;99.90
30385;DHT22;17181;51.002;4.096;2024-02-04T19:11:50;12.60;99.90
30385;DHT22;17181;51.002;4.096;2024-02-04T19:14:17;12.50;99.90
30385;DHT22;17181;51.002;4.096;2024-02-04T19:16:45;12.40;99.90
30385;DHT22;17181;51.002;4.096;2024-02-04T19:19:11;12.30;99.90
30385;DHT22;17181;51.002;4.096;2024-02-04T19:21:48;12.30;99.90
30385;DHT22;17181;51.002;4.096;2024-02-04T19:24:15;12.30;99.90
30385;DHT22;17181;51.002;4.096;2024-02-04T19:26:44;12.30;99.90
30385;DHT22;17181;51.002;4.096;2024-02-04T19:29:12;12.20;99.90
30385;DHT22;17181;51.002;4.096;2024-02-04T19:31:38;12.20;99.90
30385;DHT22;17181;51.002;4.096;2024-02-04T19:34:08;12.20;99.90
30385;DHT22;17181;51.002;4.096;2024-02-04T19:36:33;12.10;99.90
30385;DHT22;17181;51.002;4.096;2024-02-04T19:39:00;12.10;99.90
30385;DHT22;17181;51.002;4.096;2024-02-04T19:41:25;12.10;99.90
30385;DHT22;17181;51.002;4.096;2024-02-04T19:43:52;12.10;99.90
30385;DHT22;17181;51.002;4.096;2024-02-04T19:46:18;12.10;99.90
30385;DHT22;17181;51.002;4.096;2024-02-04T19:48:45;12.10;99.90
30385;DHT22;17181;51.002;4.096;2024-02-04T19:51:12;12.10;99.90
30385;DHT22;17181;51.002;4.096;2024-02-04T19:53:40;12.10;99.90
30385;DHT22;17181;51.002;4.096;2024-02-04T19:56:06;12.10;99.90
30385;DHT22;17181;51.002;4.096;2024-02-04T19:58:31;12.20;99.90
30385;DHT22;17181;51.002;4.096;2024-02-04T20:00:57;12.10;99.90
30385;DHT22;17181;51.002;4.096;2024-02-04T20:03:23;12.20;99.90
30385;DHT22;17181;51.002;4.096;2024-02-04T20:05:49;12.20;99.90
30385;DHT22;17181;51.002;4.096;2024-02-04T20:08:15;12.20;99.90
30385;DHT22;17181;51.002;4.096;2024-02-04T20:10:40;12.20;99.90
30385;DHT22;17181;51.002;4.096;2024-02-04T20:13:06;12.20;99.90
30385;DHT22;17181;51.002;4.096;2024-02-04T20:15:32;12.20;99.90
30385;DHT22;17181;51.002;4.096;2024-02-04T20:17:58;12.30;99.90
30385;DHT22;17181;51.002;4.096;2024-02-04T20:20:24;12.30;99.90
30385;DHT22;17181;51.002;4.096;2024-02-04T20:22:51;12.30;99.90
30385;DHT22;17181;51.002;4.096;2024-02-04T20:25:24;12.30;99.90
30385;DHT22;17181;51.002;4.096;2024-02-04T20:27:54;12.30;99.90
30385;DHT22;17181;51.002;4.096;2024-02-04T20:30:20;12.40;99.90
30385;DHT22;17181;51.002;4.096;2024-02-04T20:32:50;12.40;99.90
30385;DHT22;17181;51.002;4.096;2024-02-04T20:35:16;12.40;99.90
30385;DHT22;17181;51.002;4.096;2024-02-04T20:37:42;12.40;99.90
30385;DHT22;17181;51.002;4.096;2024-02-04T20:40:08;12.40;99.90
30385;DHT22;17181;51.002;4.096;2024-02-04T20:42:35;12.50;99.90
30385;DHT22;17181;51.002;4.096;2024-02-04T20:45:01;12.40;99.90
30385;DHT22;17181;51.002;4.096;2024-02-04T20:47:27;12.40;99.90
30385;DHT22;17181;51.002;4.096;2024-02-04T20:49:53;12.40;99.90
30385;DHT22;17181;51.002;4.096;2024-02-04T20:52:18;12.30;99.90
30385;DHT22;17181;51.002;4.096;2024-02-04T20:54:45;12.30;99.90
30385;DHT22;17181;51.002;4.096;2024-02-04T20:57:11;12.30;99.90
30385;DHT22;17181;51.002;4.096;2024-02-04T20:59:37;12.30;99.90
30385;DHT22;17181;51.002;4.096;2024-02-04T21:02:02;12.30;99.90
30385;DHT22;17181;51.002;4.096;2024-02-04T21:04:28;12.30;99.90
30385;DHT22;17181;51.002;4.096;2024-02-04T21:06:54;12.30;99.90
30385;DHT22;17181;51.002;4.096;2024-02-04T21:09:20;12.30;99.90
30385;DHT22;17181;51.002;4.096;2024-02-04T21:11:46;12.30;99.90
30385;DHT22;17181;51.002;4.096;2024-02-04T21:14:11;12.40;99.90
30385;DHT22;17181;51.002;4.096;2024-02-04T21:16:37;12.40;99.90
30385;DHT22;17181;51.002;4.096;2024-02-04T21:19:03;12.40;99.90
30385;DHT22;17181;51.002;4.096;2024-02-04T21:21:28;12.40;99.90
30385;DHT22;17181;51.002;4.096;2024-02-04T21:23:54;12.40;99.90
30385;DHT22;17181;51.002;4.096;2024-02-04T21:26:20;12.40;99.90
30385;DHT22;17181;51.002;4.096;2024-02-04T21:28:46;12.40;99.90
30385;DHT22;17181;51.002;4.096;2024-02-04T21:31:12;12.50;99.90
30385;DHT22;17181;51.002;4.096;2024-02-04T21:33:38;12.50;99.90
30385;DHT22;17181;51.002;4.096;2024-02-04T21:36:10;12.50;99.90
30385;DHT22;17181;51.002;4.096;2024-02-04T21:38:37;12.50;99.90
30385;DHT22;17181;51.002;4.096;2024-02-04T21:41:03;12.50;99.90
30385;DHT22;17181;51.002;4.096;2024-02-04T21:43:29;12.50;99.90
30385;DHT22;17181;51.002;4.096;2024-02-04T21:45:55;12.50;99.90
30385;DHT22;17181;51.002;4.096;2024-02-04T21:48:20;12.50;99.90
30385;DHT22;17181;51.002;4.096;2024-02-04T21:50:48;12.50;99.90
30385;DHT22;17181;51.002;4.096;2024-02-04T21:53:14;12.50;99.90
30385;DHT22;17181;51.002;4.096;2024-02-04T21:55:40;12.50;99.90
30385;DHT22;17181;51.002;4.096;2024-02-04T21:58:06;12.50;99.90
30385;DHT22;17181;51.002;4.096;2024-02-04T22:00:32;12.50;99.90
30385;DHT22;17181;51.002;4.096;2024-02-04T22:03:00;12.40;99.90
30385;DHT22;17181;51.002;4.096;2024-02-04T22:05:26;12.40;99.90
30385;DHT22;17181;51.002;4.096;2024-02-04T22:07:54;12.30;99.90
30385;DHT22;17181;51.002;4.096;2024-02-04T22:10:20;12.20;99.90
30385;DHT22;17181;51.002;4.096;2024-02-04T22:12:46;12.30;99.90
30385;DHT22;17181;51.002;4.096;2024-02-04T22:15:12;12.20;99.90
30385;DHT22;17181;51.002;4.096;2024-02-04T22:17:38;12.20;99.90
30385;DHT22;17181;51.002;4.096;2024-02-04T22:20:05;12.20;99.90
30385;DHT22;17181;51.002;4.096;2024-02-04T22:22:31;12.10;99.90
30385;DHT22;17181;51.002;4.096;2024-02-04T22:24:57;12.00;99.90
30385;DHT22;17181;51.002;4.096;2024-02-04T22:27:22;12.00;99.90
30385;DHT22;17181;51.002;4.096;2024-02-04T22:29:48;12.00;99.90
30385;DHT22;17181;51.002;4.096;2024-02-04T22:32:14;12.00;99.90
30385;DHT22;17181;51.002;4.096;2024-02-04T22:34:40;11.90;99.90
30385;DHT22;17181;51.002;4.096;2024-02-04T22:37:07;11.90;99.90
30385;DHT22;17181;51.002;4.096;2024-02-04T22:39:34;11.90;99.90
30385;DHT22;17181;51.002;4.096;2024-02-04T22:42:00;11.90;99.90
30385;DHT22;17181;51.002;4.096;2024-02-04T22:44:26;11.80;99.90
30385;DHT22;17181;51.002;4.096;2024-02-04T22:46:52;11.90;99.90
30385;DHT22;17181;51.002;4.096;2024-02-04T22:49:18;11.80;99.90
30385;DHT22;17181;51.002;4.096;2024-02-04T22:51:43;11.70;99.90
30385;DHT22;17181;51.002;4.096;2024-02-04T22:54:09;11.70;99.90
30385;DHT22;17181;51.002;4.096;2024-02-04T22:56:35;11.80;99.90
30385;DHT22;17181;51.002;4.096;2024-02-04T22:59:01;11.70;99.90
30385;DHT22;17181;51.002;4.096;2024-02-04T23:01:26;11.70;99.90
30385;DHT22;17181;51.002;4.096;2024-02-04T23:03:55;11.70;99.90
30385;DHT22;17181;51.002;4.096;2024-02-04T23:06:21;11.70;99.90
30385;DHT22;17181;51.002;4.096;2024-02-04T23:08:48;11.60;99.90
30385;DHT22;17181;51.002;4.096;2024-02-04T23:11:14;11.60;99.90
30385;DHT22;17181;51.002;4.096;2024-02-04T23:13:40;11.60;99.90
30385;DHT22;17181;51.002;4.096;2024-02-04T23:16:07;11.60;99.90
30385;DHT22;17181;51.002;4.096;2024-02-04T23:18:34;11.70;99.90
30385;DHT22;17181;51.002;4.096;2024-02-04T23:21:07;11.60;99.90
30385;DHT22;17181;51.002;4.096;2024-02-04T23:23:33;11.60;99.90
30385;DHT22;17181;51.002;4.096;2024-02-04T23:25:59;11.60;99.90
30385;DHT22;17181;51.002;4.096;2024-02-04T23:28:25;11.60;99.90
30385;DHT22;17181;51.002;4.096;2024-02-04T23:30:52;11.60;99.90
30385;DHT22;17181;51.002;4.096;2024-02-04T23:33:17;11.60;99.90
30385;DHT22;17181;51.002;4.096;2024-02-04T23:35:43;11.50;99.90
30385;DHT22;17181;51.002;4.096;2024-02-04T23:38:09;11.50;99.90
30385;DHT22;17181;51.002;4.096;2024-02-04T23:40:35;11.50;99.90
30385;DHT22;17181;51.002;4.096;2024-02-04T23:43:01;11.50;99.90
30385;DHT22;17181;51.002;4.096;2024-02-04T23:45:27;11.50;99.90
30385;DHT22;17181;51.002;4.096;2024-02-04T23:47:53;11.50;99.90
30385;DHT22;17181;51.002;4.096;2024-02-04T23:50:19;11.50;99.90
30385;DHT22;17181;51.002;4.096;2024-02-04T23:52:45;11.50;99.90
30385;DHT22;17181;51.002;4.096;2024-02-04T23:55:11;11.50;99.90
30385;DHT22;17181;51.002;4.096;2024-02-04T23:57:37;11.40;99.90
